sensor_id;sensor_type;location;lat;lon;timestamp;temperature;humidity
831;DHT22;397;50.564;7.272;2023-04-29T00:01:50;14.20;99.90
831;DHT22;397;50.564;7.272;2023-04-29T00:04:17;14.20;99.90
831;DHT22;397;50.564;7.272;2023-04-29T00:06:45;14.20;99.90
831;DHT22;397;50.564;7.272;2023-04-29T00:09:12;14.10;99.90
831;DHT22;397;50.564;7.272;2023-04-29T00:11:40;14.10;99.90
831;DHT22;397;50.564;7.272;2023-04-29T00:14:08;14.10;99.90
831;DHT22;397;50.564;7.272;2023-04-29T00:16:35;14.10;99.90
831;DHT22;397;50.564;7.272;2023-04-29T00:19:03;14.00;99.90
831;DHT22;397;50.564;7.272;2023-04-29T00:21:30;14.00;99.90
831;DHT22;397;50.564;7.272;2023-04-29T00:23:58;14.00;99.90
831;DHT22;397;50.564;7.272;2023-04-29T00:26:26;13.90;99.90
831;DHT22;397;50.564;7.272;2023-04-29T00:28:54;13.90;99.90
831;DHT22;397;50.564;7.272;2023-04-29T00:31:21;13.90;99.90
831;DHT22;397;50.564;7.272;2023-04-29T00:33:49;13.80;99.90
831;DHT22;397;50.564;7.272;2023-04-29T00:36:16;13.80;99.90
831;DHT22;397;50.564;7.272;2023-04-29T00:38:44;13.80;99.90
831;DHT22;397;50.564;7.272;2023-04-29T00:41:11;13.80;99.90
831;DHT22;397;50.564;7.272;2023-04-29T00:43:39;13.80;99.90
831;DHT22;397;50.564;7.272;2023-04-29T00:46:06;13.80;99.90
831;DHT22;397;50.564;7.272;2023-04-29T00:48:38;13.80;99.90
831;DHT22;397;50.564;7.272;2023-04-29T00:51:06;13.70;99.90
831;DHT22;397;50.564;7.272;2023-04-29T00:53:35;13.70;99.90
831;DHT22;397;50.564;7.272;2023-04-29T00:56:03;13.70;99.90
831;DHT22;397;50.564;7.272;2023-04-29T00:58:32;13.70;99.90
831;DHT22;397;50.564;7.272;2023-04-29T01:01:02;13.70;99.90
831;DHT22;397;50.564;7.272;2023-04-29T01:03:30;13.60;99.90
831;DHT22;397;50.564;7.272;2023-04-29T01:08:53;13.60;99.90
831;DHT22;397;50.564;7.272;2023-04-29T01:11:22;13.60;99.90
831;DHT22;397;50.564;7.272;2023-04-29T01:13:59;13.60;99.90
831;DHT22;397;50.564;7.272;2023-04-29T01:16:36;13.50;99.90
831;DHT22;397;50.564;7.272;2023-04-29T01:21:47;13.50;99.90
831;DHT22;397;50.564;7.272;2023-04-29T01:24:15;13.50;99.90
831;DHT22;397;50.564;7.272;2023-04-29T01:26:47;13.50;99.90
831;DHT22;397;50.564;7.272;2023-04-29T01:29:24;13.50;99.90
831;DHT22;397;50.564;7.272;2023-04-29T01:32:03;13.50;99.90
831;DHT22;397;50.564;7.272;2023-04-29T01:37:51;13.50;99.90
831;DHT22;397;50.564;7.272;2023-04-29T01:40:15;13.50;99.90
831;DHT22;397;50.564;7.272;2023-04-29T01:45:27;13.40;99.90
831;DHT22;397;50.564;7.272;2023-04-29T01:47:57;13.40;99.90
831;DHT22;397;50.564;7.272;2023-04-29T01:50:25;13.30;99.90
831;DHT22;397;50.564;7.272;2023-04-29T01:52:53;13.30;99.90
831;DHT22;397;50.564;7.272;2023-04-29T01:55:20;13.20;99.90
831;DHT22;397;50.564;7.272;2023-04-29T01:57:48;13.20;99.90
831;DHT22;397;50.564;7.272;2023-04-29T02:00:15;13.20;99.90
831;DHT22;397;50.564;7.272;2023-04-29T02:02:43;13.20;99.90
831;DHT22;397;50.564;7.272;2023-04-29T02:05:11;13.00;99.90
831;DHT22;397;50.564;7.272;2023-04-29T02:07:38;13.00;99.90
831;DHT22;397;50.564;7.272;2023-04-29T02:10:08;12.90;99.90
831;DHT22;397;50.564;7.272;2023-04-29T02:12:35;13.00;99.90
831;DHT22;397;50.564;7.272;2023-04-29T02:15:03;13.00;99.90
831;DHT22;397;50.564;7.272;2023-04-29T02:17:32;12.80;99.90
831;DHT22;397;50.564;7.272;2023-04-29T02:20:00;12.80;99.90
831;DHT22;397;50.564;7.272;2023-04-29T02:22:28;12.80;99.90
831;DHT22;397;50.564;7.272;2023-04-29T02:24:55;12.80;99.90
831;DHT22;397;50.564;7.272;2023-04-29T02:27:23;12.80;99.90
831;DHT22;397;50.564;7.272;2023-04-29T02:29:52;12.80;99.90
831;DHT22;397;50.564;7.272;2023-04-29T02:32:19;12.70;99.90
831;DHT22;397;50.564;7.272;2023-04-29T02:34:47;12.70;99.90
831;DHT22;397;50.564;7.272;2023-04-29T02:37:14;12.80;99.90
831;DHT22;397;50.564;7.272;2023-04-29T02:39:42;12.70;99.90
831;DHT22;397;50.564;7.272;2023-04-29T02:42:09;12.70;99.90
831;DHT22;397;50.564;7.272;2023-04-29T02:44:37;12.70;99.90
831;DHT22;397;50.564;7.272;2023-04-29T02:47:05;12.70;99.90
831;DHT22;397;50.564;7.272;2023-04-29T02:49:32;12.70;99.90
831;DHT22;397;50.564;7.272;2023-04-29T02:52:00;12.80;99.90
831;DHT22;397;50.564;7.272;2023-04-29T02:54:28;12.80;99.90
831;DHT22;397;50.564;7.272;2023-04-29T02:56:55;12.70;99.90
831;DHT22;397;50.564;7.272;2023-04-29T02:59:24;12.70;99.90
831;DHT22;397;50.564;7.272;2023-04-29T03:01:51;12.70;99.90
831;DHT22;397;50.564;7.272;2023-04-29T03:04:20;12.70;99.90
831;DHT22;397;50.564;7.272;2023-04-29T03:06:48;12.60;99.90
831;DHT22;397;50.564;7.272;2023-04-29T03:09:16;12.60;99.90
831;DHT22;397;50.564;7.272;2023-04-29T03:11:43;12.60;99.90
831;DHT22;397;50.564;7.272;2023-04-29T03:14:11;12.60;99.90
831;DHT22;397;50.564;7.272;2023-04-29T03:16:39;12.60;99.90
831;DHT22;397;50.564;7.272;2023-04-29T03:19:06;12.60;99.90
831;DHT22;397;50.564;7.272;2023-04-29T03:21:34;12.60;99.90
831;DHT22;397;50.564;7.272;2023-04-29T03:24:02;12.60;99.90
831;DHT22;397;50.564;7.272;2023-04-29T03:26:29;12.60;99.90
831;DHT22;397;50.564;7.272;2023-04-29T03:28:57;12.60;99.90
831;DHT22;397;50.564;7.272;2023-04-29T03:31:24;12.60;99.90
831;DHT22;397;50.564;7.272;2023-04-29T03:33:52;12.60;99.90
831;DHT22;397;50.564;7.272;2023-04-29T03:36:20;12.50;99.90
831;DHT22;397;50.564;7.272;2023-04-29T03:38:47;12.50;99.90
831;DHT22;397;50.564;7.272;2023-04-29T03:41:15;12.50;99.90
831;DHT22;397;50.564;7.272;2023-04-29T03:43:43;12.40;99.90
831;DHT22;397;50.564;7.272;2023-04-29T03:46:10;12.40;99.90
831;DHT22;397;50.564;7.272;2023-04-29T03:48:38;12.40;99.90
831;DHT22;397;50.564;7.272;2023-04-29T03:51:06;12.40;99.90
831;DHT22;397;50.564;7.272;2023-04-29T03:53:35;12.40;99.90
831;DHT22;397;50.564;7.272;2023-04-29T03:56:03;12.40;99.90
831;DHT22;397;50.564;7.272;2023-04-29T03:58:31;12.40;99.90
831;DHT22;397;50.564;7.272;2023-04-29T04:00:58;12.40;99.90
831;DHT22;397;50.564;7.272;2023-04-29T04:03:26;12.40;99.90
831;DHT22;397;50.564;7.272;2023-04-29T04:05:53;12.30;99.90
831;DHT22;397;50.564;7.272;2023-04-29T04:08:21;12.30;99.90
831;DHT22;397;50.564;7.272;2023-04-29T04:10:48;12.30;99.90
831;DHT22;397;50.564;7.272;2023-04-29T04:13:16;12.20;99.90
831;DHT22;397;50.564;7.272;2023-04-29T04:15:49;12.20;99.90
831;DHT22;397;50.564;7.272;2023-04-29T04:18:17;12.30;99.90
831;DHT22;397;50.564;7.272;2023-04-29T04:20:45;12.30;99.90
831;DHT22;397;50.564;7.272;2023-04-29T04:23:13;12.40;99.90
831;DHT22;397;50.564;7.272;2023-04-29T04:25:48;12.50;99.90
831;DHT22;397;50.564;7.272;2023-04-29T04:28:15;12.40;99.90
831;DHT22;397;50.564;7.272;2023-04-29T04:30:45;12.30;99.90
831;DHT22;397;50.564;7.272;2023-04-29T04:33:13;12.30;99.90
831;DHT22;397;50.564;7.272;2023-04-29T04:35:42;12.30;99.90
831;DHT22;397;50.564;7.272;2023-04-29T04:38:09;12.30;99.90
831;DHT22;397;50.564;7.272;2023-04-29T04:40:41;12.30;99.90
831;DHT22;397;50.564;7.272;2023-04-29T04:45:58;12.10;99.90
831;DHT22;397;50.564;7.272;2023-04-29T04:48:26;12.00;99.90
831;DHT22;397;50.564;7.272;2023-04-29T04:50:53;12.10;99.90
831;DHT22;397;50.564;7.272;2023-04-29T04:53:21;12.10;99.90
831;DHT22;397;50.564;7.272;2023-04-29T04:55:49;12.10;99.90
831;DHT22;397;50.564;7.272;2023-04-29T04:58:16;12.20;99.90
831;DHT22;397;50.564;7.272;2023-04-29T05:00:47;12.20;99.90
831;DHT22;397;50.564;7.272;2023-04-29T05:03:14;12.20;99.90
831;DHT22;397;50.564;7.272;2023-04-29T05:05:42;12.20;99.90
831;DHT22;397;50.564;7.272;2023-04-29T05:08:09;12.20;99.90
831;DHT22;397;50.564;7.272;2023-04-29T05:10:37;12.20;99.90
831;DHT22;397;50.564;7.272;2023-04-29T05:13:05;12.20;99.90
831;DHT22;397;50.564;7.272;2023-04-29T05:15:32;12.20;99.90
831;DHT22;397;50.564;7.272;2023-04-29T05:18:01;12.20;99.90
831;DHT22;397;50.564;7.272;2023-04-29T05:20:28;12.20;99.90
831;DHT22;397;50.564;7.272;2023-04-29T05:22:56;12.20;99.90
831;DHT22;397;50.564;7.272;2023-04-29T05:25:23;12.20;99.90
831;DHT22;397;50.564;7.272;2023-04-29T05:27:51;12.10;99.90
831;DHT22;397;50.564;7.272;2023-04-29T05:30:19;12.10;99.90
831;DHT22;397;50.564;7.272;2023-04-29T05:32:47;11.90;99.90
831;DHT22;397;50.564;7.272;2023-04-29T05:35:17;11.90;99.90
831;DHT22;397;50.564;7.272;2023-04-29T05:37:44;11.90;99.90
831;DHT22;397;50.564;7.272;2023-04-29T05:40:12;11.90;99.90
831;DHT22;397;50.564;7.272;2023-04-29T05:42:39;11.90;99.90
831;DHT22;397;50.564;7.272;2023-04-29T05:45:08;11.90;99.90
831;DHT22;397;50.564;7.272;2023-04-29T05:47:37;11.90;99.90
831;DHT22;397;50.564;7.272;2023-04-29T05:50:05;11.80;99.90
831;DHT22;397;50.564;7.272;2023-04-29T05:52:33;11.90;99.90
831;DHT22;397;50.564;7.272;2023-04-29T05:55:01;11.80;99.90
831;DHT22;397;50.564;7.272;2023-04-29T05:57:28;11.80;99.90
831;DHT22;397;50.564;7.272;2023-04-29T05:59:56;11.90;99.90
831;DHT22;397;50.564;7.272;2023-04-29T06:02:25;11.90;99.90
831;DHT22;397;50.564;7.272;2023-04-29T06:04:53;11.80;99.90
831;DHT22;397;50.564;7.272;2023-04-29T06:07:21;11.70;99.90
831;DHT22;397;50.564;7.272;2023-04-29T06:09:49;11.80;99.90
831;DHT22;397;50.564;7.272;2023-04-29T06:12:16;11.90;99.90
831;DHT22;397;50.564;7.272;2023-04-29T06:14:44;11.90;99.90
831;DHT22;397;50.564;7.272;2023-04-29T06:17:11;11.90;99.90
831;DHT22;397;50.564;7.272;2023-04-29T06:19:39;11.80;99.90
831;DHT22;397;50.564;7.272;2023-04-29T06:22:06;11.80;99.90
831;DHT22;397;50.564;7.272;2023-04-29T06:24:34;11.70;99.90
831;DHT22;397;50.564;7.272;2023-04-29T06:27:01;11.80;99.90
831;DHT22;397;50.564;7.272;2023-04-29T06:29:30;11.80;99.90
831;DHT22;397;50.564;7.272;2023-04-29T06:31:57;11.80;99.90
831;DHT22;397;50.564;7.272;2023-04-29T06:34:25;11.80;99.90
831;DHT22;397;50.564;7.272;2023-04-29T06:36:52;11.70;99.90
831;DHT22;397;50.564;7.272;2023-04-29T06:39:20;11.80;99.90
831;DHT22;397;50.564;7.272;2023-04-29T06:41:47;11.60;99.90
831;DHT22;397;50.564;7.272;2023-04-29T06:44:15;11.70;99.90
831;DHT22;397;50.564;7.272;2023-04-29T06:46:43;11.70;99.90
831;DHT22;397;50.564;7.272;2023-04-29T06:49:11;11.70;99.90
831;DHT22;397;50.564;7.272;2023-04-29T06:51:38;11.70;99.90
831;DHT22;397;50.564;7.272;2023-04-29T06:54:07;11.50;99.90
831;DHT22;397;50.564;7.272;2023-04-29T06:56:35;11.60;99.90
831;DHT22;397;50.564;7.272;2023-04-29T06:59:02;11.60;99.90
831;DHT22;397;50.564;7.272;2023-04-29T07:01:30;11.80;99.90
831;DHT22;397;50.564;7.272;2023-04-29T07:03:57;11.70;99.90
831;DHT22;397;50.564;7.272;2023-04-29T07:06:25;11.70;99.90
831;DHT22;397;50.564;7.272;2023-04-29T07:08:52;11.80;99.90
831;DHT22;397;50.564;7.272;2023-04-29T07:11:20;11.80;99.90
831;DHT22;397;50.564;7.272;2023-04-29T07:13:51;11.90;99.90
831;DHT22;397;50.564;7.272;2023-04-29T07:16:19;12.00;99.90
831;DHT22;397;50.564;7.272;2023-04-29T07:18:47;12.20;99.90
831;DHT22;397;50.564;7.272;2023-04-29T07:21:15;11.90;99.90
831;DHT22;397;50.564;7.272;2023-04-29T07:23:43;12.10;99.90
831;DHT22;397;50.564;7.272;2023-04-29T07:26:15;12.20;99.90
831;DHT22;397;50.564;7.272;2023-04-29T07:28:44;12.20;99.90
831;DHT22;397;50.564;7.272;2023-04-29T07:31:12;12.20;99.90
831;DHT22;397;50.564;7.272;2023-04-29T07:33:39;12.00;99.90
831;DHT22;397;50.564;7.272;2023-04-29T07:36:07;12.00;99.90
831;DHT22;397;50.564;7.272;2023-04-29T07:38:35;12.00;99.90
831;DHT22;397;50.564;7.272;2023-04-29T07:41:02;12.00;99.90
831;DHT22;397;50.564;7.272;2023-04-29T07:43:32;12.00;99.90
831;DHT22;397;50.564;7.272;2023-04-29T07:46:00;12.10;99.90
831;DHT22;397;50.564;7.272;2023-04-29T07:48:27;11.80;99.90
831;DHT22;397;50.564;7.272;2023-04-29T07:50:55;11.80;99.90
831;DHT22;397;50.564;7.272;2023-04-29T07:53:22;11.90;99.90
831;DHT22;397;50.564;7.272;2023-04-29T07:55:50;12.10;99.90
831;DHT22;397;50.564;7.272;2023-04-29T07:58:17;12.30;99.90
831;DHT22;397;50.564;7.272;2023-04-29T08:00:45;12.30;99.90
831;DHT22;397;50.564;7.272;2023-04-29T08:03:12;12.10;99.90
831;DHT22;397;50.564;7.272;2023-04-29T08:05:40;12.00;99.90
831;DHT22;397;50.564;7.272;2023-04-29T08:08:08;12.10;99.90
831;DHT22;397;50.564;7.272;2023-04-29T08:10:37;12.20;99.90
831;DHT22;397;50.564;7.272;2023-04-29T08:13:06;12.30;99.90
831;DHT22;397;50.564;7.272;2023-04-29T08:15:34;12.40;99.90
831;DHT22;397;50.564;7.272;2023-04-29T08:18:01;12.60;99.90
831;DHT22;397;50.564;7.272;2023-04-29T08:20:29;12.50;99.90
831;DHT22;397;50.564;7.272;2023-04-29T08:22:58;12.70;99.90
831;DHT22;397;50.564;7.272;2023-04-29T08:25:26;12.80;99.90
831;DHT22;397;50.564;7.272;2023-04-29T08:27:54;12.60;99.90
831;DHT22;397;50.564;7.272;2023-04-29T08:30:22;12.80;99.90
831;DHT22;397;50.564;7.272;2023-04-29T08:32:49;12.80;99.90
831;DHT22;397;50.564;7.272;2023-04-29T08:35:17;13.20;99.90
831;DHT22;397;50.564;7.272;2023-04-29T08:37:45;13.10;99.90
831;DHT22;397;50.564;7.272;2023-04-29T08:40:13;13.30;99.90
831;DHT22;397;50.564;7.272;2023-04-29T08:42:41;13.40;99.90
831;DHT22;397;50.564;7.272;2023-04-29T08:45:11;13.50;99.90
831;DHT22;397;50.564;7.272;2023-04-29T08:47:39;13.80;99.90
831;DHT22;397;50.564;7.272;2023-04-29T08:50:08;13.80;99.90
831;DHT22;397;50.564;7.272;2023-04-29T08:52:36;13.90;99.90
831;DHT22;397;50.564;7.272;2023-04-29T08:55:04;13.60;99.90
831;DHT22;397;50.564;7.272;2023-04-29T08:57:36;13.50;99.90
831;DHT22;397;50.564;7.272;2023-04-29T09:00:08;13.20;99.90
831;DHT22;397;50.564;7.272;2023-04-29T09:02:42;13.30;99.90
831;DHT22;397;50.564;7.272;2023-04-29T09:05:09;12.80;99.90
831;DHT22;397;50.564;7.272;2023-04-29T09:07:40;12.80;99.90
831;DHT22;397;50.564;7.272;2023-04-29T09:10:08;12.80;99.90
831;DHT22;397;50.564;7.272;2023-04-29T09:12:37;12.90;99.90
831;DHT22;397;50.564;7.272;2023-04-29T09:15:05;12.70;99.90
831;DHT22;397;50.564;7.272;2023-04-29T09:17:45;12.60;99.90
831;DHT22;397;50.564;7.272;2023-04-29T09:22:52;12.70;99.90
831;DHT22;397;50.564;7.272;2023-04-29T09:25:21;12.80;99.90
831;DHT22;397;50.564;7.272;2023-04-29T09:27:48;12.80;99.90
831;DHT22;397;50.564;7.272;2023-04-29T09:30:16;13.10;99.90
831;DHT22;397;50.564;7.272;2023-04-29T09:32:45;13.20;99.90
831;DHT22;397;50.564;7.272;2023-04-29T09:35:24;13.40;99.90
831;DHT22;397;50.564;7.272;2023-04-29T09:37:53;13.70;99.90
831;DHT22;397;50.564;7.272;2023-04-29T09:40:32;13.80;99.90
831;DHT22;397;50.564;7.272;2023-04-29T09:43:00;13.90;99.90
831;DHT22;397;50.564;7.272;2023-04-29T09:45:36;13.70;99.90
831;DHT22;397;50.564;7.272;2023-04-29T09:48:05;13.60;99.90
831;DHT22;397;50.564;7.272;2023-04-29T09:50:38;13.50;99.90
831;DHT22;397;50.564;7.272;2023-04-29T09:53:07;13.70;99.90
831;DHT22;397;50.564;7.272;2023-04-29T09:55:56;13.50;99.90
831;DHT22;397;50.564;7.272;2023-04-29T09:58:05;13.70;99.90
831;DHT22;397;50.564;7.272;2023-04-29T10:00:34;13.30;99.90
831;DHT22;397;50.564;7.272;2023-04-29T10:03:03;13.40;99.90
831;DHT22;397;50.564;7.272;2023-04-29T10:05:32;13.30;99.90
831;DHT22;397;50.564;7.272;2023-04-29T10:08:00;13.40;99.90
831;DHT22;397;50.564;7.272;2023-04-29T10:10:29;13.40;99.90
831;DHT22;397;50.564;7.272;2023-04-29T10:12:58;13.40;99.90
831;DHT22;397;50.564;7.272;2023-04-29T10:15:31;13.30;99.90
831;DHT22;397;50.564;7.272;2023-04-29T10:18:08;13.00;99.90
831;DHT22;397;50.564;7.272;2023-04-29T10:20:32;12.90;99.90
831;DHT22;397;50.564;7.272;2023-04-29T10:23:02;12.90;99.90
831;DHT22;397;50.564;7.272;2023-04-29T10:25:30;12.90;99.90
831;DHT22;397;50.564;7.272;2023-04-29T10:28:00;12.90;99.90
831;DHT22;397;50.564;7.272;2023-04-29T10:30:30;13.00;99.90
831;DHT22;397;50.564;7.272;2023-04-29T10:32:59;12.80;99.90
831;DHT22;397;50.564;7.272;2023-04-29T10:35:27;12.80;99.90
831;DHT22;397;50.564;7.272;2023-04-29T10:37:55;12.70;99.90
831;DHT22;397;50.564;7.272;2023-04-29T10:40:41;12.80;99.90
831;DHT22;397;50.564;7.272;2023-04-29T10:43:11;12.80;99.90
831;DHT22;397;50.564;7.272;2023-04-29T10:45:39;13.10;99.90
831;DHT22;397;50.564;7.272;2023-04-29T10:48:10;13.10;99.90
831;DHT22;397;50.564;7.272;2023-04-29T10:53:19;13.00;99.90
831;DHT22;397;50.564;7.272;2023-04-29T10:55:52;13.10;99.90
831;DHT22;397;50.564;7.272;2023-04-29T10:58:37;13.20;99.90
831;DHT22;397;50.564;7.272;2023-04-29T11:01:05;13.30;99.90
831;DHT22;397;50.564;7.272;2023-04-29T11:03:54;13.10;99.90
831;DHT22;397;50.564;7.272;2023-04-29T11:09:13;13.40;99.90
831;DHT22;397;50.564;7.272;2023-04-29T11:11:52;13.40;99.90
831;DHT22;397;50.564;7.272;2023-04-29T11:14:29;13.70;99.90
831;DHT22;397;50.564;7.272;2023-04-29T11:16:59;13.70;99.90
831;DHT22;397;50.564;7.272;2023-04-29T11:19:46;13.70;99.90
831;DHT22;397;50.564;7.272;2023-04-29T11:22:28;13.70;99.90
831;DHT22;397;50.564;7.272;2023-04-29T11:24:59;13.50;99.90
831;DHT22;397;50.564;7.272;2023-04-29T11:27:32;13.50;99.90
831;DHT22;397;50.564;7.272;2023-04-29T11:30:01;13.40;99.90
831;DHT22;397;50.564;7.272;2023-04-29T11:32:32;13.30;99.90
831;DHT22;397;50.564;7.272;2023-04-29T11:35:10;13.00;99.90
831;DHT22;397;50.564;7.272;2023-04-29T11:37:39;13.10;99.90
831;DHT22;397;50.564;7.272;2023-04-29T11:40:08;13.00;99.90
831;DHT22;397;50.564;7.272;2023-04-29T11:42:49;13.00;99.90
831;DHT22;397;50.564;7.272;2023-04-29T11:45:17;12.90;99.90
831;DHT22;397;50.564;7.272;2023-04-29T11:47:46;13.00;99.90
831;DHT22;397;50.564;7.272;2023-04-29T11:50:15;13.00;99.90
831;DHT22;397;50.564;7.272;2023-04-29T11:52:48;13.20;99.90
831;DHT22;397;50.564;7.272;2023-04-29T11:55:16;13.20;99.90
831;DHT22;397;50.564;7.272;2023-04-29T11:57:43;13.20;99.90
831;DHT22;397;50.564;7.272;2023-04-29T12:00:12;13.30;99.90
831;DHT22;397;50.564;7.272;2023-04-29T12:02:45;13.00;99.90
831;DHT22;397;50.564;7.272;2023-04-29T12:05:12;13.00;99.90
831;DHT22;397;50.564;7.272;2023-04-29T12:07:42;13.00;99.90
831;DHT22;397;50.564;7.272;2023-04-29T12:10:11;13.10;99.90
831;DHT22;397;50.564;7.272;2023-04-29T12:12:39;13.00;99.90
831;DHT22;397;50.564;7.272;2023-04-29T12:15:09;13.00;99.90
831;DHT22;397;50.564;7.272;2023-04-29T12:17:37;13.20;99.90
831;DHT22;397;50.564;7.272;2023-04-29T12:20:08;13.20;99.90
831;DHT22;397;50.564;7.272;2023-04-29T12:22:36;13.30;99.90
831;DHT22;397;50.564;7.272;2023-04-29T12:25:05;13.50;99.90
831;DHT22;397;50.564;7.272;2023-04-29T12:27:34;13.40;99.90
831;DHT22;397;50.564;7.272;2023-04-29T12:30:07;13.20;99.90
831;DHT22;397;50.564;7.272;2023-04-29T12:32:38;13.30;99.90
831;DHT22;397;50.564;7.272;2023-04-29T12:35:09;13.10;99.90
831;DHT22;397;50.564;7.272;2023-04-29T12:37:35;13.00;99.90
831;DHT22;397;50.564;7.272;2023-04-29T12:40:03;13.10;99.90
831;DHT22;397;50.564;7.272;2023-04-29T12:42:32;13.10;99.90
831;DHT22;397;50.564;7.272;2023-04-29T12:44:59;13.30;99.90
831;DHT22;397;50.564;7.272;2023-04-29T12:47:31;13.30;99.90
831;DHT22;397;50.564;7.272;2023-04-29T12:50:01;13.20;99.90
831;DHT22;397;50.564;7.272;2023-04-29T12:52:29;13.20;99.90
831;DHT22;397;50.564;7.272;2023-04-29T12:54:56;13.50;99.90
831;DHT22;397;50.564;7.272;2023-04-29T12:57:26;13.60;99.90
831;DHT22;397;50.564;7.272;2023-04-29T12:59:53;13.50;99.90
831;DHT22;397;50.564;7.272;2023-04-29T13:02:21;13.40;99.90
831;DHT22;397;50.564;7.272;2023-04-29T13:04:48;13.40;99.90
831;DHT22;397;50.564;7.272;2023-04-29T13:07:16;13.30;99.90
831;DHT22;397;50.564;7.272;2023-04-29T13:09:44;13.10;99.90
831;DHT22;397;50.564;7.272;2023-04-29T13:12:11;13.00;99.90
831;DHT22;397;50.564;7.272;2023-04-29T13:14:39;12.90;99.90
831;DHT22;397;50.564;7.272;2023-04-29T13:17:06;12.80;99.90
831;DHT22;397;50.564;7.272;2023-04-29T13:19:34;13.00;99.90
831;DHT22;397;50.564;7.272;2023-04-29T13:22:01;13.00;99.90
831;DHT22;397;50.564;7.272;2023-04-29T13:24:29;12.90;99.90
831;DHT22;397;50.564;7.272;2023-04-29T13:26:58;12.70;99.90
831;DHT22;397;50.564;7.272;2023-04-29T13:29:26;12.80;99.90
831;DHT22;397;50.564;7.272;2023-04-29T13:31:53;12.50;99.90
831;DHT22;397;50.564;7.272;2023-04-29T13:34:21;12.30;99.90
831;DHT22;397;50.564;7.272;2023-04-29T13:36:49;12.40;99.90
831;DHT22;397;50.564;7.272;2023-04-29T13:39:17;12.50;99.90
831;DHT22;397;50.564;7.272;2023-04-29T13:41:46;12.60;99.90
831;DHT22;397;50.564;7.272;2023-04-29T13:44:13;12.60;99.90
831;DHT22;397;50.564;7.272;2023-04-29T13:46:41;12.70;99.90
831;DHT22;397;50.564;7.272;2023-04-29T13:49:09;12.70;99.90
831;DHT22;397;50.564;7.272;2023-04-29T13:51:36;12.90;99.90
831;DHT22;397;50.564;7.272;2023-04-29T13:54:04;12.50;99.90
831;DHT22;397;50.564;7.272;2023-04-29T13:56:31;12.40;99.90
831;DHT22;397;50.564;7.272;2023-04-29T13:58:59;12.60;99.90
831;DHT22;397;50.564;7.272;2023-04-29T14:01:26;12.50;99.90
831;DHT22;397;50.564;7.272;2023-04-29T14:03:54;12.60;99.90
831;DHT22;397;50.564;7.272;2023-04-29T14:06:21;12.70;99.90
831;DHT22;397;50.564;7.272;2023-04-29T14:08:49;12.80;99.90
831;DHT22;397;50.564;7.272;2023-04-29T14:11:16;12.90;99.90
831;DHT22;397;50.564;7.272;2023-04-29T14:13:45;12.80;99.90
831;DHT22;397;50.564;7.272;2023-04-29T14:16:12;12.80;99.90
831;DHT22;397;50.564;7.272;2023-04-29T14:18:40;12.80;99.90
831;DHT22;397;50.564;7.272;2023-04-29T14:21:07;12.70;99.90
831;DHT22;397;50.564;7.272;2023-04-29T14:23:36;12.70;99.90
831;DHT22;397;50.564;7.272;2023-04-29T14:26:04;12.90;99.90
831;DHT22;397;50.564;7.272;2023-04-29T14:28:32;12.80;99.90
831;DHT22;397;50.564;7.272;2023-04-29T14:30:59;12.80;99.90
831;DHT22;397;50.564;7.272;2023-04-29T14:33:27;12.60;99.90
831;DHT22;397;50.564;7.272;2023-04-29T14:35:54;12.60;99.90
831;DHT22;397;50.564;7.272;2023-04-29T14:38:22;12.80;99.90
831;DHT22;397;50.564;7.272;2023-04-29T14:40:49;12.70;99.90
831;DHT22;397;50.564;7.272;2023-04-29T14:43:17;12.80;99.90
831;DHT22;397;50.564;7.272;2023-04-29T14:45:45;12.70;99.90
831;DHT22;397;50.564;7.272;2023-04-29T14:48:12;13.00;99.90
831;DHT22;397;50.564;7.272;2023-04-29T14:50:40;12.70;99.90
831;DHT22;397;50.564;7.272;2023-04-29T14:53:07;12.90;99.90
831;DHT22;397;50.564;7.272;2023-04-29T14:55:35;13.40;99.90
831;DHT22;397;50.564;7.272;2023-04-29T14:58:03;13.30;99.90
831;DHT22;397;50.564;7.272;2023-04-29T15:00:30;13.50;99.90
831;DHT22;397;50.564;7.272;2023-04-29T15:02:58;13.50;99.90
831;DHT22;397;50.564;7.272;2023-04-29T15:05:25;13.50;99.90
831;DHT22;397;50.564;7.272;2023-04-29T15:07:53;13.30;99.90
831;DHT22;397;50.564;7.272;2023-04-29T15:10:20;13.20;99.90
831;DHT22;397;50.564;7.272;2023-04-29T15:12:48;13.40;99.90
831;DHT22;397;50.564;7.272;2023-04-29T15:15:18;13.30;99.90
831;DHT22;397;50.564;7.272;2023-04-29T15:17:45;13.60;99.90
831;DHT22;397;50.564;7.272;2023-04-29T15:20:13;13.80;99.90
831;DHT22;397;50.564;7.272;2023-04-29T15:22:40;13.90;99.90
831;DHT22;397;50.564;7.272;2023-04-29T15:25:08;14.10;99.90
831;DHT22;397;50.564;7.272;2023-04-29T15:27:36;14.20;99.90
831;DHT22;397;50.564;7.272;2023-04-29T15:30:05;14.40;99.90
831;DHT22;397;50.564;7.272;2023-04-29T15:32:32;14.30;99.90
831;DHT22;397;50.564;7.272;2023-04-29T15:35:01;14.30;99.90
831;DHT22;397;50.564;7.272;2023-04-29T15:37:29;14.40;99.90
831;DHT22;397;50.564;7.272;2023-04-29T15:40:00;14.40;99.90
831;DHT22;397;50.564;7.272;2023-04-29T15:42:27;14.40;99.90
831;DHT22;397;50.564;7.272;2023-04-29T15:44:55;14.60;99.90
831;DHT22;397;50.564;7.272;2023-04-29T15:47:22;14.40;99.90
831;DHT22;397;50.564;7.272;2023-04-29T15:49:50;14.40;99.90
831;DHT22;397;50.564;7.272;2023-04-29T15:52:17;14.30;99.90
831;DHT22;397;50.564;7.272;2023-04-29T15:54:45;14.40;99.90
831;DHT22;397;50.564;7.272;2023-04-29T15:57:12;14.40;99.90
831;DHT22;397;50.564;7.272;2023-04-29T15:59:40;14.40;99.90
831;DHT22;397;50.564;7.272;2023-04-29T16:02:07;14.30;99.90
831;DHT22;397;50.564;7.272;2023-04-29T16:04:37;14.20;99.90
831;DHT22;397;50.564;7.272;2023-04-29T16:07:05;14.30;99.90
831;DHT22;397;50.564;7.272;2023-04-29T16:09:33;14.30;99.90
831;DHT22;397;50.564;7.272;2023-04-29T16:12:00;14.30;99.90
831;DHT22;397;50.564;7.272;2023-04-29T16:14:28;14.20;99.90
831;DHT22;397;50.564;7.272;2023-04-29T16:16:56;14.20;99.90
831;DHT22;397;50.564;7.272;2023-04-29T16:19:23;14.00;99.90
831;DHT22;397;50.564;7.272;2023-04-29T16:21:50;14.00;99.90
831;DHT22;397;50.564;7.272;2023-04-29T16:24:18;14.10;99.90
831;DHT22;397;50.564;7.272;2023-04-29T16:26:46;14.10;99.90
831;DHT22;397;50.564;7.272;2023-04-29T16:29:13;14.10;99.90
831;DHT22;397;50.564;7.272;2023-04-29T16:31:41;14.10;99.90
831;DHT22;397;50.564;7.272;2023-04-29T16:34:09;14.00;99.90
831;DHT22;397;50.564;7.272;2023-04-29T16:36:37;13.90;99.90
831;DHT22;397;50.564;7.272;2023-04-29T16:39:04;13.80;99.90
831;DHT22;397;50.564;7.272;2023-04-29T16:41:32;13.70;99.90
831;DHT22;397;50.564;7.272;2023-04-29T16:44:00;13.60;99.90
831;DHT22;397;50.564;7.272;2023-04-29T16:46:27;13.60;99.90
831;DHT22;397;50.564;7.272;2023-04-29T16:48:55;13.60;99.90
831;DHT22;397;50.564;7.272;2023-04-29T16:51:23;13.60;99.90
831;DHT22;397;50.564;7.272;2023-04-29T16:53:54;13.60;99.90
831;DHT22;397;50.564;7.272;2023-04-29T16:56:22;13.60;99.90
831;DHT22;397;50.564;7.272;2023-04-29T16:58:49;13.50;99.90
831;DHT22;397;50.564;7.272;2023-04-29T17:01:17;13.60;99.90
831;DHT22;397;50.564;7.272;2023-04-29T17:03:48;13.60;99.90
831;DHT22;397;50.564;7.272;2023-04-29T17:06:16;13.60;99.90